KGNC

Gaines County Airport

Seminole, Texas, USA
METAR KGNC 190655Z AUTO 26006KT 10SM CLR M03/M09 A3014 RMK AO2 T10261095
Observed Flight Rules
Jan-19 @ 06:55 UTC (20 minutes ago) Visual Flight Rules
Wind Visibility Clouds
260° at 6 knots 10 miles
  • Clear skies
Temperatures Readings
Current -3°C / 27°F
Dewpoint -10°C / 14°F
Humidity 59%
Altimeter 30.14" Hg
Pressure 1021 hPa
Elevation 1010
METAR KGNC 190655Z AUTO 26006KT 10SM CLR M03/M09 A3014 RMK AO2 T10261095
Observed Flight Rules
Jan-19 @ 06:55 UTC
(20 minutes ago)
VFR
Wind Visibility
260° at 6 knots 10 miles
Clouds
  • Clear skies
Temperature Dewpoint
-3°C / 27°F -10°C / 14°F
Humidity Altimeter Pressure
59% 30.14" Hg 1021 hPa